Petionville, Haiti
Current Conditions -  °F | °C
As of 6:00 PM on Monday 20 Oct 2014 (Local Time) from MDST Reporting Station
Thunderstorm Thunderstorm  
Wind Chill: 75°   Ceiling: 1800
Heat Index: 75°   Visibility: 6mi
Dew Point: 70°   Wind: 7mph
Humidity: 83%   Direction: 150°SSE
Pressure: 29.91"   Gusts: NA
Location:  18.52°N, 72.29°W
Report Text: MDST 202300Z 15006KT 9999 TS FEW016CB BKN018 24/21 Q1013 CB SE/S/SW
Loading
Personal Weather Stations






























Interactive Weather Map
Tropical Storm Tracking
New forecast layout! Learn more

10-Day Weather Forecast

Advertisements
Track Severe Weather on mobile